sensor_id;sensor_type;location;lat;lon;timestamp;temperature;humidity
50556;DHT22;36508;52.512;13.450;2023-04-19T00:02:17;7.50;99.90
50556;DHT22;36508;52.512;13.450;2023-04-19T00:04:44;7.50;99.90
50556;DHT22;36508;52.512;13.450;2023-04-19T00:07:10;7.40;99.90
50556;DHT22;36508;52.512;13.450;2023-04-19T00:09:37;7.50;99.90
50556;DHT22;36508;52.512;13.450;2023-04-19T00:12:02;7.50;99.90
50556;DHT22;36508;52.512;13.450;2023-04-19T00:14:28;7.50;99.90
50556;DHT22;36508;52.512;13.450;2023-04-19T00:16:54;7.50;99.90
50556;DHT22;36508;52.512;13.450;2023-04-19T00:19:19;7.60;99.90
50556;DHT22;36508;52.512;13.450;2023-04-19T00:21:46;7.60;99.90
50556;DHT22;36508;52.512;13.450;2023-04-19T00:24:12;7.60;99.90
50556;DHT22;36508;52.512;13.450;2023-04-19T00:26:37;7.60;99.90
50556;DHT22;36508;52.512;13.450;2023-04-19T00:29:03;7.50;99.90
50556;DHT22;36508;52.512;13.450;2023-04-19T00:31:29;7.60;99.90
50556;DHT22;36508;52.512;13.450;2023-04-19T00:33:55;7.50;99.90
50556;DHT22;36508;52.512;13.450;2023-04-19T00:36:22;7.60;99.90
50556;DHT22;36508;52.512;13.450;2023-04-19T00:38:50;7.60;99.90
50556;DHT22;36508;52.512;13.450;2023-04-19T00:41:16;7.40;99.90
50556;DHT22;36508;52.512;13.450;2023-04-19T00:43:43;7.40;99.90
50556;DHT22;36508;52.512;13.450;2023-04-19T00:46:09;7.40;99.90
50556;DHT22;36508;52.512;13.450;2023-04-19T00:48:34;7.40;99.90
50556;DHT22;36508;52.512;13.450;2023-04-19T00:51:02;7.40;99.90
50556;DHT22;36508;52.512;13.450;2023-04-19T00:53:28;7.40;99.90
50556;DHT22;36508;52.512;13.450;2023-04-19T00:55:56;7.30;99.90
50556;DHT22;36508;52.512;13.450;2023-04-19T00:58:24;7.30;99.90
50556;DHT22;36508;52.512;13.450;2023-04-19T01:00:50;7.30;99.90
50556;DHT22;36508;52.512;13.450;2023-04-19T01:03:16;7.30;99.90
50556;DHT22;36508;52.512;13.450;2023-04-19T01:05:42;7.20;99.90
50556;DHT22;36508;52.512;13.450;2023-04-19T01:08:08;7.10;99.90
50556;DHT22;36508;52.512;13.450;2023-04-19T01:10:33;7.20;99.90
50556;DHT22;36508;52.512;13.450;2023-04-19T01:12:59;7.20;99.90
50556;DHT22;36508;52.512;13.450;2023-04-19T01:15:25;7.10;99.90
50556;DHT22;36508;52.512;13.450;2023-04-19T01:17:51;7.00;99.90
50556;DHT22;36508;52.512;13.450;2023-04-19T01:20:16;7.00;99.90
50556;DHT22;36508;52.512;13.450;2023-04-19T01:22:42;6.90;99.90
50556;DHT22;36508;52.512;13.450;2023-04-19T01:25:08;6.90;99.90
50556;DHT22;36508;52.512;13.450;2023-04-19T01:27:34;6.90;99.90
50556;DHT22;36508;52.512;13.450;2023-04-19T01:30:00;6.80;99.90
50556;DHT22;36508;52.512;13.450;2023-04-19T01:32:26;6.70;99.90
50556;DHT22;36508;52.512;13.450;2023-04-19T01:34:51;6.60;99.90
50556;DHT22;36508;52.512;13.450;2023-04-19T01:37:17;6.60;99.90
50556;DHT22;36508;52.512;13.450;2023-04-19T01:39:43;6.70;99.90
50556;DHT22;36508;52.512;13.450;2023-04-19T01:42:08;6.60;99.90
50556;DHT22;36508;52.512;13.450;2023-04-19T01:44:34;6.60;99.90
50556;DHT22;36508;52.512;13.450;2023-04-19T01:47:00;6.50;99.90
50556;DHT22;36508;52.512;13.450;2023-04-19T01:49:25;6.50;99.90
50556;DHT22;36508;52.512;13.450;2023-04-19T01:51:51;6.50;99.90
50556;DHT22;36508;52.512;13.450;2023-04-19T01:54:19;6.50;99.90
50556;DHT22;36508;52.512;13.450;2023-04-19T01:56:44;6.50;99.90
50556;DHT22;36508;52.512;13.450;2023-04-19T01:59:10;6.50;99.90
50556;DHT22;36508;52.512;13.450;2023-04-19T02:01:35;6.40;99.90
50556;DHT22;36508;52.512;13.450;2023-04-19T02:04:01;6.30;99.90
50556;DHT22;36508;52.512;13.450;2023-04-19T02:06:27;6.20;99.90
50556;DHT22;36508;52.512;13.450;2023-04-19T02:08:54;6.20;99.90
50556;DHT22;36508;52.512;13.450;2023-04-19T02:11:20;6.30;99.90
50556;DHT22;36508;52.512;13.450;2023-04-19T02:13:45;6.30;99.90
50556;DHT22;36508;52.512;13.450;2023-04-19T02:16:11;6.10;99.90
50556;DHT22;36508;52.512;13.450;2023-04-19T02:18:37;6.10;99.90
50556;DHT22;36508;52.512;13.450;2023-04-19T02:21:04;6.10;99.90
50556;DHT22;36508;52.512;13.450;2023-04-19T02:23:30;6.10;99.90
50556;DHT22;36508;52.512;13.450;2023-04-19T02:25:56;6.10;99.90
50556;DHT22;36508;52.512;13.450;2023-04-19T02:28:21;6.10;99.90
50556;DHT22;36508;52.512;13.450;2023-04-19T02:30:47;5.90;99.90
50556;DHT22;36508;52.512;13.450;2023-04-19T02:33:13;5.90;99.90
50556;DHT22;36508;52.512;13.450;2023-04-19T02:35:39;5.80;99.90
50556;DHT22;36508;52.512;13.450;2023-04-19T02:38:05;5.80;99.90
50556;DHT22;36508;52.512;13.450;2023-04-19T02:40:30;5.80;99.90
50556;DHT22;36508;52.512;13.450;2023-04-19T02:42:56;5.80;99.90
50556;DHT22;36508;52.512;13.450;2023-04-19T02:45:22;5.80;99.90
50556;DHT22;36508;52.512;13.450;2023-04-19T02:47:47;5.80;99.90
50556;DHT22;36508;52.512;13.450;2023-04-19T02:50:15;5.80;99.90
50556;DHT22;36508;52.512;13.450;2023-04-19T02:52:40;5.80;99.90
50556;DHT22;36508;52.512;13.450;2023-04-19T02:55:06;5.80;99.90
50556;DHT22;36508;52.512;13.450;2023-04-19T02:57:32;5.80;99.90
50556;DHT22;36508;52.512;13.450;2023-04-19T02:59:58;5.70;99.90
50556;DHT22;36508;52.512;13.450;2023-04-19T03:02:24;5.60;99.90
50556;DHT22;36508;52.512;13.450;2023-04-19T03:04:50;5.60;99.90
50556;DHT22;36508;52.512;13.450;2023-04-19T03:07:17;5.60;99.90
50556;DHT22;36508;52.512;13.450;2023-04-19T03:09:43;5.60;99.90
50556;DHT22;36508;52.512;13.450;2023-04-19T03:12:09;5.60;99.90
50556;DHT22;36508;52.512;13.450;2023-04-19T03:14:34;5.60;99.90
50556;DHT22;36508;52.512;13.450;2023-04-19T03:17:01;5.60;99.90
50556;DHT22;36508;52.512;13.450;2023-04-19T03:19:27;5.60;99.90
50556;DHT22;36508;52.512;13.450;2023-04-19T03:21:54;5.50;99.90
50556;DHT22;36508;52.512;13.450;2023-04-19T03:24:26;5.40;99.90
50556;DHT22;36508;52.512;13.450;2023-04-19T03:26:52;5.50;99.90
50556;DHT22;36508;52.512;13.450;2023-04-19T03:29:17;5.50;99.90
50556;DHT22;36508;52.512;13.450;2023-04-19T03:31:43;5.50;99.90
50556;DHT22;36508;52.512;13.450;2023-04-19T03:34:08;5.50;99.90
50556;DHT22;36508;52.512;13.450;2023-04-19T03:36:34;5.50;99.90
50556;DHT22;36508;52.512;13.450;2023-04-19T03:39:02;5.40;99.90
50556;DHT22;36508;52.512;13.450;2023-04-19T03:41:27;5.40;99.90
50556;DHT22;36508;52.512;13.450;2023-04-19T03:43:53;5.40;99.90
50556;DHT22;36508;52.512;13.450;2023-04-19T03:46:19;5.40;99.90
50556;DHT22;36508;52.512;13.450;2023-04-19T03:48:44;5.40;99.90
50556;DHT22;36508;52.512;13.450;2023-04-19T03:51:10;5.30;99.90
50556;DHT22;36508;52.512;13.450;2023-04-19T03:53:39;5.30;99.90
50556;DHT22;36508;52.512;13.450;2023-04-19T03:56:04;5.30;99.90
50556;DHT22;36508;52.512;13.450;2023-04-19T03:58:32;5.30;99.90
50556;DHT22;36508;52.512;13.450;2023-04-19T04:00:58;5.30;99.90
50556;DHT22;36508;52.512;13.450;2023-04-19T04:03:24;5.20;99.90
50556;DHT22;36508;52.512;13.450;2023-04-19T04:05:50;5.20;99.90
50556;DHT22;36508;52.512;13.450;2023-04-19T04:08:15;5.20;99.90
50556;DHT22;36508;52.512;13.450;2023-04-19T04:10:41;5.20;99.90
50556;DHT22;36508;52.512;13.450;2023-04-19T04:13:06;5.30;99.90
50556;DHT22;36508;52.512;13.450;2023-04-19T04:15:32;5.10;99.90
50556;DHT22;36508;52.512;13.450;2023-04-19T04:17:58;5.10;99.90
50556;DHT22;36508;52.512;13.450;2023-04-19T04:20:23;5.00;99.90
50556;DHT22;36508;52.512;13.450;2023-04-19T04:22:49;5.10;99.90
50556;DHT22;36508;52.512;13.450;2023-04-19T04:25:15;5.10;99.90
50556;DHT22;36508;52.512;13.450;2023-04-19T04:27:43;5.00;99.90
50556;DHT22;36508;52.512;13.450;2023-04-19T04:30:10;5.00;99.90
50556;DHT22;36508;52.512;13.450;2023-04-19T04:32:36;5.00;99.90
50556;DHT22;36508;52.512;13.450;2023-04-19T04:35:03;4.90;99.90
50556;DHT22;36508;52.512;13.450;2023-04-19T04:37:33;4.90;99.90
50556;DHT22;36508;52.512;13.450;2023-04-19T04:40:00;4.90;99.90
50556;DHT22;36508;52.512;13.450;2023-04-19T04:42:26;4.90;99.90
50556;DHT22;36508;52.512;13.450;2023-04-19T04:44:52;5.00;99.90
50556;DHT22;36508;52.512;13.450;2023-04-19T04:47:19;5.10;99.90
50556;DHT22;36508;52.512;13.450;2023-04-19T04:49:45;5.00;99.90
50556;DHT22;36508;52.512;13.450;2023-04-19T04:52:11;5.10;99.90
50556;DHT22;36508;52.512;13.450;2023-04-19T04:54:36;5.00;99.90
50556;DHT22;36508;52.512;13.450;2023-04-19T04:57:02;5.10;99.90
50556;DHT22;36508;52.512;13.450;2023-04-19T04:59:28;5.10;99.90
50556;DHT22;36508;52.512;13.450;2023-04-19T05:01:53;5.10;99.90
50556;DHT22;36508;52.512;13.450;2023-04-19T05:04:19;5.10;99.90
50556;DHT22;36508;52.512;13.450;2023-04-19T05:06:45;5.00;99.90
50556;DHT22;36508;52.512;13.450;2023-04-19T05:09:11;5.00;99.90
50556;DHT22;36508;52.512;13.450;2023-04-19T05:11:36;5.10;99.90
50556;DHT22;36508;52.512;13.450;2023-04-19T05:14:02;5.20;99.90
50556;DHT22;36508;52.512;13.450;2023-04-19T05:16:28;5.20;99.90
50556;DHT22;36508;52.512;13.450;2023-04-19T05:18:54;5.20;99.90
50556;DHT22;36508;52.512;13.450;2023-04-19T05:21:26;5.20;99.90
50556;DHT22;36508;52.512;13.450;2023-04-19T05:23:53;5.30;99.90
50556;DHT22;36508;52.512;13.450;2023-04-19T05:26:19;5.30;99.90
50556;DHT22;36508;52.512;13.450;2023-04-19T05:28:45;5.30;99.90
50556;DHT22;36508;52.512;13.450;2023-04-19T05:31:11;5.30;99.90
50556;DHT22;36508;52.512;13.450;2023-04-19T05:33:36;5.30;99.90
50556;DHT22;36508;52.512;13.450;2023-04-19T05:36:03;5.30;99.90
50556;DHT22;36508;52.512;13.450;2023-04-19T05:38:28;5.30;99.90
50556;DHT22;36508;52.512;13.450;2023-04-19T05:40:54;5.40;99.90
50556;DHT22;36508;52.512;13.450;2023-04-19T05:43:19;5.50;99.90
50556;DHT22;36508;52.512;13.450;2023-04-19T05:45:46;5.40;99.90
50556;DHT22;36508;52.512;13.450;2023-04-19T05:48:12;5.60;99.90
50556;DHT22;36508;52.512;13.450;2023-04-19T05:50:38;5.90;99.90
50556;DHT22;36508;52.512;13.450;2023-04-19T05:53:03;6.10;99.90
50556;DHT22;36508;52.512;13.450;2023-04-19T05:55:29;6.20;99.90
50556;DHT22;36508;52.512;13.450;2023-04-19T05:57:55;6.30;99.90
50556;DHT22;36508;52.512;13.450;2023-04-19T06:00:21;6.20;99.90
50556;DHT22;36508;52.512;13.450;2023-04-19T06:02:46;6.10;99.90
50556;DHT22;36508;52.512;13.450;2023-04-19T06:05:12;6.10;99.90
50556;DHT22;36508;52.512;13.450;2023-04-19T06:07:38;6.00;99.90
50556;DHT22;36508;52.512;13.450;2023-04-19T06:10:04;6.10;99.90
50556;DHT22;36508;52.512;13.450;2023-04-19T06:12:30;6.10;99.90
50556;DHT22;36508;52.512;13.450;2023-04-19T06:14:56;6.10;99.90
50556;DHT22;36508;52.512;13.450;2023-04-19T06:17:21;6.10;99.90
50556;DHT22;36508;52.512;13.450;2023-04-19T06:19:53;6.20;99.90
50556;DHT22;36508;52.512;13.450;2023-04-19T06:22:20;6.20;99.90
50556;DHT22;36508;52.512;13.450;2023-04-19T06:24:46;6.20;99.90
50556;DHT22;36508;52.512;13.450;2023-04-19T06:27:12;6.30;99.90
50556;DHT22;36508;52.512;13.450;2023-04-19T06:29:38;6.30;99.90
50556;DHT22;36508;52.512;13.450;2023-04-19T06:32:04;6.40;99.90
50556;DHT22;36508;52.512;13.450;2023-04-19T06:34:30;6.40;99.90
50556;DHT22;36508;52.512;13.450;2023-04-19T06:36:57;6.40;99.90
50556;DHT22;36508;52.512;13.450;2023-04-19T06:39:24;6.50;99.90
50556;DHT22;36508;52.512;13.450;2023-04-19T06:41:49;6.50;99.90
50556;DHT22;36508;52.512;13.450;2023-04-19T06:44:15;6.60;99.90
50556;DHT22;36508;52.512;13.450;2023-04-19T06:46:40;6.70;99.90
50556;DHT22;36508;52.512;13.450;2023-04-19T06:49:06;6.70;99.90
50556;DHT22;36508;52.512;13.450;2023-04-19T06:51:32;6.80;99.90
50556;DHT22;36508;52.512;13.450;2023-04-19T06:53:58;6.90;99.90
50556;DHT22;36508;52.512;13.450;2023-04-19T06:56:42;6.90;99.90
50556;DHT22;36508;52.512;13.450;2023-04-19T06:59:11;7.00;99.90
50556;DHT22;36508;52.512;13.450;2023-04-19T07:01:37;7.10;99.90
50556;DHT22;36508;52.512;13.450;2023-04-19T07:04:02;7.20;99.90
50556;DHT22;36508;52.512;13.450;2023-04-19T07:06:28;7.30;99.90
50556;DHT22;36508;52.512;13.450;2023-04-19T07:08:59;7.30;99.90
50556;DHT22;36508;52.512;13.450;2023-04-19T07:11:25;7.40;99.90
50556;DHT22;36508;52.512;13.450;2023-04-19T07:13:51;7.70;99.90
50556;DHT22;36508;52.512;13.450;2023-04-19T07:16:16;7.70;99.90
50556;DHT22;36508;52.512;13.450;2023-04-19T07:18:42;7.60;99.90
50556;DHT22;36508;52.512;13.450;2023-04-19T07:21:08;7.70;99.90
50556;DHT22;36508;52.512;13.450;2023-04-19T07:23:34;7.80;99.90
50556;DHT22;36508;52.512;13.450;2023-04-19T07:26:00;7.90;99.90
50556;DHT22;36508;52.512;13.450;2023-04-19T07:28:28;8.10;99.90
50556;DHT22;36508;52.512;13.450;2023-04-19T07:30:53;8.20;99.90
50556;DHT22;36508;52.512;13.450;2023-04-19T07:33:19;8.20;99.90
50556;DHT22;36508;52.512;13.450;2023-04-19T07:35:44;8.20;99.90
50556;DHT22;36508;52.512;13.450;2023-04-19T07:38:10;8.50;99.90
50556;DHT22;36508;52.512;13.450;2023-04-19T07:40:36;8.50;99.90
50556;DHT22;36508;52.512;13.450;2023-04-19T07:43:01;8.50;99.90
50556;DHT22;36508;52.512;13.450;2023-04-19T07:45:29;8.50;99.90
50556;DHT22;36508;52.512;13.450;2023-04-19T07:47:55;8.70;99.90
50556;DHT22;36508;52.512;13.450;2023-04-19T07:50:21;8.80;99.90
50556;DHT22;36508;52.512;13.450;2023-04-19T07:52:46;8.80;99.90
50556;DHT22;36508;52.512;13.450;2023-04-19T07:55:12;8.90;99.90
50556;DHT22;36508;52.512;13.450;2023-04-19T07:57:38;9.00;99.90
50556;DHT22;36508;52.512;13.450;2023-04-19T08:00:04;9.00;99.90
50556;DHT22;36508;52.512;13.450;2023-04-19T08:02:30;9.10;99.90
50556;DHT22;36508;52.512;13.450;2023-04-19T08:04:55;9.20;99.90
50556;DHT22;36508;52.512;13.450;2023-04-19T08:07:22;9.30;99.90
50556;DHT22;36508;52.512;13.450;2023-04-19T08:09:48;9.30;99.90
50556;DHT22;36508;52.512;13.450;2023-04-19T08:12:14;9.40;99.90
50556;DHT22;36508;52.512;13.450;2023-04-19T08:14:40;9.40;99.90
50556;DHT22;36508;52.512;13.450;2023-04-19T08:17:06;9.50;99.90
50556;DHT22;36508;52.512;13.450;2023-04-19T08:19:32;9.50;99.90
50556;DHT22;36508;52.512;13.450;2023-04-19T08:21:58;9.70;99.90
50556;DHT22;36508;52.512;13.450;2023-04-19T08:24:24;9.70;99.90
50556;DHT22;36508;52.512;13.450;2023-04-19T08:26:49;9.90;99.90
50556;DHT22;36508;52.512;13.450;2023-04-19T08:29:21;10.00;99.90
50556;DHT22;36508;52.512;13.450;2023-04-19T08:31:59;10.00;99.90
50556;DHT22;36508;52.512;13.450;2023-04-19T08:34:26;10.10;99.90
50556;DHT22;36508;52.512;13.450;2023-04-19T08:36:52;10.20;99.90
50556;DHT22;36508;52.512;13.450;2023-04-19T08:39:17;10.30;99.90
50556;DHT22;36508;52.512;13.450;2023-04-19T08:41:43;10.40;99.90
50556;DHT22;36508;52.512;13.450;2023-04-19T08:44:11;10.60;99.90
50556;DHT22;36508;52.512;13.450;2023-04-19T08:46:40;10.80;99.90
50556;DHT22;36508;52.512;13.450;2023-04-19T08:49:08;10.80;99.90
50556;DHT22;36508;52.512;13.450;2023-04-19T08:51:34;10.90;99.90
50556;DHT22;36508;52.512;13.450;2023-04-19T08:54:00;10.90;99.90
50556;DHT22;36508;52.512;13.450;2023-04-19T08:56:28;11.10;99.90
50556;DHT22;36508;52.512;13.450;2023-04-19T08:58:55;11.20;99.90
50556;DHT22;36508;52.512;13.450;2023-04-19T09:01:20;11.30;99.90
50556;DHT22;36508;52.512;13.450;2023-04-19T09:03:46;11.50;99.90
50556;DHT22;36508;52.512;13.450;2023-04-19T09:06:12;11.50;99.90
50556;DHT22;36508;52.512;13.450;2023-04-19T09:08:38;11.80;99.90
50556;DHT22;36508;52.512;13.450;2023-04-19T09:11:04;12.10;99.90
50556;DHT22;36508;52.512;13.450;2023-04-19T09:13:31;12.20;99.90
50556;DHT22;36508;52.512;13.450;2023-04-19T09:15:57;12.10;99.90
50556;DHT22;36508;52.512;13.450;2023-04-19T09:18:25;11.90;99.90
50556;DHT22;36508;52.512;13.450;2023-04-19T09:20:51;11.80;99.90
50556;DHT22;36508;52.512;13.450;2023-04-19T09:23:24;11.60;99.90
50556;DHT22;36508;52.512;13.450;2023-04-19T09:25:53;11.40;99.90
50556;DHT22;36508;52.512;13.450;2023-04-19T09:28:19;11.60;99.90
50556;DHT22;36508;52.512;13.450;2023-04-19T09:30:44;11.90;99.90
50556;DHT22;36508;52.512;13.450;2023-04-19T09:33:11;12.20;99.90
50556;DHT22;36508;52.512;13.450;2023-04-19T09:38:06;12.30;99.90
50556;DHT22;36508;52.512;13.450;2023-04-19T09:40:32;12.50;99.90
50556;DHT22;36508;52.512;13.450;2023-04-19T09:42:58;12.70;99.90
50556;DHT22;36508;52.512;13.450;2023-04-19T09:45:38;12.50;99.90
50556;DHT22;36508;52.512;13.450;2023-04-19T09:48:05;12.50;99.90
50556;DHT22;36508;52.512;13.450;2023-04-19T09:50:32;12.20;99.90
50556;DHT22;36508;52.512;13.450;2023-04-19T09:52:58;11.90;99.90
50556;DHT22;36508;52.512;13.450;2023-04-19T09:55:25;11.80;99.90
50556;DHT22;36508;52.512;13.450;2023-04-19T09:57:51;12.00;99.90
50556;DHT22;36508;52.512;13.450;2023-04-19T10:00:17;12.40;99.90
50556;DHT22;36508;52.512;13.450;2023-04-19T10:02:44;12.50;99.90
50556;DHT22;36508;52.512;13.450;2023-04-19T10:05:14;12.40;99.90
50556;DHT22;36508;52.512;13.450;2023-04-19T10:07:40;12.40;99.90
50556;DHT22;36508;52.512;13.450;2023-04-19T10:10:06;12.40;99.90
50556;DHT22;36508;52.512;13.450;2023-04-19T10:12:34;12.40;99.90
50556;DHT22;36508;52.512;13.450;2023-04-19T10:15:01;12.40;99.90
50556;DHT22;36508;52.512;13.450;2023-04-19T10:17:26;12.30;99.90
50556;DHT22;36508;52.512;13.450;2023-04-19T10:20:04;12.20;99.90
50556;DHT22;36508;52.512;13.450;2023-04-19T10:22:33;12.40;99.90
50556;DHT22;36508;52.512;13.450;2023-04-19T10:25:12;12.60;99.90
50556;DHT22;36508;52.512;13.450;2023-04-19T10:27:38;12.80;99.90
50556;DHT22;36508;52.512;13.450;2023-04-19T10:30:17;13.20;99.90
50556;DHT22;36508;52.512;13.450;2023-04-19T10:32:45;13.00;99.90
50556;DHT22;36508;52.512;13.450;2023-04-19T10:38:06;13.60;99.90
50556;DHT22;36508;52.512;13.450;2023-04-19T10:46:06;15.00;99.90
50556;DHT22;36508;52.512;13.450;2023-04-19T10:48:34;14.00;99.90
50556;DHT22;36508;52.512;13.450;2023-04-19T10:51:03;14.10;99.90
50556;DHT22;36508;52.512;13.450;2023-04-19T10:53:54;14.70;99.90
50556;DHT22;36508;52.512;13.450;2023-04-19T11:04:05;15.30;99.90
50556;DHT22;36508;52.512;13.450;2023-04-19T11:06:32;16.30;99.90
50556;DHT22;36508;52.512;13.450;2023-04-19T11:08:58;17.70;99.90
50556;DHT22;36508;52.512;13.450;2023-04-19T11:11:25;18.40;99.10
50556;DHT22;36508;52.512;13.450;2023-04-19T11:13:53;18.50;98.50
50556;DHT22;36508;52.512;13.450;2023-04-19T11:16:19;18.70;96.50
50556;DHT22;36508;52.512;13.450;2023-04-19T11:18:45;19.20;95.90
50556;DHT22;36508;52.512;13.450;2023-04-19T11:21:17;20.40;94.00
50556;DHT22;36508;52.512;13.450;2023-04-19T11:23:42;21.10;91.50
50556;DHT22;36508;52.512;13.450;2023-04-19T11:26:11;20.60;90.40
50556;DHT22;36508;52.512;13.450;2023-04-19T11:28:38;19.00;90.40
50556;DHT22;36508;52.512;13.450;2023-04-19T11:31:04;17.20;91.50
50556;DHT22;36508;52.512;13.450;2023-04-19T11:33:34;16.00;92.90
50556;DHT22;36508;52.512;13.450;2023-04-19T11:36:00;15.30;94.40
50556;DHT22;36508;52.512;13.450;2023-04-19T11:38:29;15.10;95.30
50556;DHT22;36508;52.512;13.450;2023-04-19T11:41:02;14.80;95.20
50556;DHT22;36508;52.512;13.450;2023-04-19T11:43:35;14.40;96.10
50556;DHT22;36508;52.512;13.450;2023-04-19T11:46:08;14.40;96.50
50556;DHT22;36508;52.512;13.450;2023-04-19T11:48:35;14.00;96.10
50556;DHT22;36508;52.512;13.450;2023-04-19T11:51:01;13.80;96.30
50556;DHT22;36508;52.512;13.450;2023-04-19T11:53:29;13.80;97.20
50556;DHT22;36508;52.512;13.450;2023-04-19T11:56:04;13.80;97.40
50556;DHT22;36508;52.512;13.450;2023-04-19T11:58:37;13.60;97.30
50556;DHT22;36508;52.512;13.450;2023-04-19T12:03:38;13.90;97.30
50556;DHT22;36508;52.512;13.450;2023-04-19T12:06:04;14.10;97.70
50556;DHT22;36508;52.512;13.450;2023-04-19T12:08:35;14.70;97.30
50556;DHT22;36508;52.512;13.450;2023-04-19T12:11:02;15.10;97.00
50556;DHT22;36508;52.512;13.450;2023-04-19T12:13:28;15.50;95.90
50556;DHT22;36508;52.512;13.450;2023-04-19T12:15:58;15.40;94.80
50556;DHT22;36508;52.512;13.450;2023-04-19T12:18:24;15.00;94.80
50556;DHT22;36508;52.512;13.450;2023-04-19T12:20:51;15.00;94.90
50556;DHT22;36508;52.512;13.450;2023-04-19T12:23:18;14.90;95.10
50556;DHT22;36508;52.512;13.450;2023-04-19T12:25:45;14.90;95.40
50556;DHT22;36508;52.512;13.450;2023-04-19T12:28:11;14.50;95.50
50556;DHT22;36508;52.512;13.450;2023-04-19T12:30:38;14.20;96.10
50556;DHT22;36508;52.512;13.450;2023-04-19T12:33:05;14.60;96.50
50556;DHT22;36508;52.512;13.450;2023-04-19T12:35:31;14.70;96.20
50556;DHT22;36508;52.512;13.450;2023-04-19T12:37:58;14.50;95.80
50556;DHT22;36508;52.512;13.450;2023-04-19T12:40:24;14.50;96.00
50556;DHT22;36508;52.512;13.450;2023-04-19T12:42:53;14.40;95.80
50556;DHT22;36508;52.512;13.450;2023-04-19T12:45:22;14.40;95.50
50556;DHT22;36508;52.512;13.450;2023-04-19T12:47:49;15.00;96.20
50556;DHT22;36508;52.512;13.450;2023-04-19T12:50:17;15.70;95.20
50556;DHT22;36508;52.512;13.450;2023-04-19T12:53:04;16.40;94.20
50556;DHT22;36508;52.512;13.450;2023-04-19T12:55:31;16.50;93.40
50556;DHT22;36508;52.512;13.450;2023-04-19T12:57:56;16.90;93.00
50556;DHT22;36508;52.512;13.450;2023-04-19T13:00:23;17.80;93.00
50556;DHT22;36508;52.512;13.450;2023-04-19T13:02:49;18.70;91.00
50556;DHT22;36508;52.512;13.450;2023-04-19T13:05:15;19.60;90.60
50556;DHT22;36508;52.512;13.450;2023-04-19T13:07:40;20.40;89.30
50556;DHT22;36508;52.512;13.450;2023-04-19T13:10:06;20.50;88.40
50556;DHT22;36508;52.512;13.450;2023-04-19T13:12:32;20.30;86.90
50556;DHT22;36508;52.512;13.450;2023-04-19T13:14:58;19.40;85.40
50556;DHT22;36508;52.512;13.450;2023-04-19T13:17:23;18.10;87.90
50556;DHT22;36508;52.512;13.450;2023-04-19T13:19:49;17.80;88.20
50556;DHT22;36508;52.512;13.450;2023-04-19T13:22:15;17.30;89.20
50556;DHT22;36508;52.512;13.450;2023-04-19T13:24:41;16.60;87.60
50556;DHT22;36508;52.512;13.450;2023-04-19T13:27:07;16.00;88.40
50556;DHT22;36508;52.512;13.450;2023-04-19T13:29:33;15.50;88.40
50556;DHT22;36508;52.512;13.450;2023-04-19T13:31:59;15.20;89.10
50556;DHT22;36508;52.512;13.450;2023-04-19T13:34:25;15.20;90.70
50556;DHT22;36508;52.512;13.450;2023-04-19T13:36:53;15.20;90.40
50556;DHT22;36508;52.512;13.450;2023-04-19T13:39:19;14.60;89.10
50556;DHT22;36508;52.512;13.450;2023-04-19T13:41:45;14.40;90.00
50556;DHT22;36508;52.512;13.450;2023-04-19T13:44:10;14.20;90.40
50556;DHT22;36508;52.512;13.450;2023-04-19T13:46:36;14.10;91.80
50556;DHT22;36508;52.512;13.450;2023-04-19T13:49:02;14.10;91.40
50556;DHT22;36508;52.512;13.450;2023-04-19T13:51:27;13.90;91.50
50556;DHT22;36508;52.512;13.450;2023-04-19T13:53:53;13.60;91.90
50556;DHT22;36508;52.512;13.450;2023-04-19T13:56:19;13.50;92.10
50556;DHT22;36508;52.512;13.450;2023-04-19T13:58:45;13.40;92.30
50556;DHT22;36508;52.512;13.450;2023-04-19T14:01:12;13.30;92.50
50556;DHT22;36508;52.512;13.450;2023-04-19T14:03:37;13.10;93.30
50556;DHT22;36508;52.512;13.450;2023-04-19T14:06:04;12.80;93.60
50556;DHT22;36508;52.512;13.450;2023-04-19T14:08:31;12.60;96.80
50556;DHT22;36508;52.512;13.450;2023-04-19T14:10:58;12.50;96.90
50556;DHT22;36508;52.512;13.450;2023-04-19T14:13:24;12.70;99.30
50556;DHT22;36508;52.512;13.450;2023-04-19T14:15:49;12.80;99.90
50556;DHT22;36508;52.512;13.450;2023-04-19T14:18:16;13.10;99.90
50556;DHT22;36508;52.512;13.450;2023-04-19T14:20:41;13.30;99.90
50556;DHT22;36508;52.512;13.450;2023-04-19T14:23:08;13.70;99.90
50556;DHT22;36508;52.512;13.450;2023-04-19T14:25:33;13.80;99.90
50556;DHT22;36508;52.512;13.450;2023-04-19T14:28:01;14.10;99.40
50556;DHT22;36508;52.512;13.450;2023-04-19T14:30:26;14.30;99.90
50556;DHT22;36508;52.512;13.450;2023-04-19T14:32:52;14.20;97.40
50556;DHT22;36508;52.512;13.450;2023-04-19T14:35:18;13.80;97.30
50556;DHT22;36508;52.512;13.450;2023-04-19T14:37:44;13.60;98.90
50556;DHT22;36508;52.512;13.450;2023-04-19T14:40:11;13.40;97.30
50556;DHT22;36508;52.512;13.450;2023-04-19T14:42:36;13.10;97.20
50556;DHT22;36508;52.512;13.450;2023-04-19T14:45:02;12.90;98.00
50556;DHT22;36508;52.512;13.450;2023-04-19T14:47:28;12.70;98.00
50556;DHT22;36508;52.512;13.450;2023-04-19T14:49:53;12.60;99.10
50556;DHT22;36508;52.512;13.450;2023-04-19T14:52:19;12.70;99.00
50556;DHT22;36508;52.512;13.450;2023-04-19T14:54:45;12.60;99.20
50556;DHT22;36508;52.512;13.450;2023-04-19T14:57:12;12.60;99.40
50556;DHT22;36508;52.512;13.450;2023-04-19T14:59:37;12.50;99.50
50556;DHT22;36508;52.512;13.450;2023-04-19T15:02:03;12.50;99.80
50556;DHT22;36508;52.512;13.450;2023-04-19T15:04:33;12.50;99.70
50556;DHT22;36508;52.512;13.450;2023-04-19T15:06:59;12.10;99.90
50556;DHT22;36508;52.512;13.450;2023-04-19T15:09:25;11.80;99.90
50556;DHT22;36508;52.512;13.450;2023-04-19T15:11:50;11.60;99.90
50556;DHT22;36508;52.512;13.450;2023-04-19T15:14:16;11.40;99.90
50556;DHT22;36508;52.512;13.450;2023-04-19T15:16:42;11.20;99.90
50556;DHT22;36508;52.512;13.450;2023-04-19T15:19:07;11.00;99.90
50556;DHT22;36508;52.512;13.450;2023-04-19T15:21:33;10.70;99.90
50556;DHT22;36508;52.512;13.450;2023-04-19T15:23:59;10.50;99.90
50556;DHT22;36508;52.512;13.450;2023-04-19T15:26:25;10.20;99.90
50556;DHT22;36508;52.512;13.450;2023-04-19T15:28:51;9.90;99.90
50556;DHT22;36508;52.512;13.450;2023-04-19T15:31:18;9.50;99.90
50556;DHT22;36508;52.512;13.450;2023-04-19T15:33:43;9.30;99.90
50556;DHT22;36508;52.512;13.450;2023-04-19T15:36:09;8.90;99.90
50556;DHT22;36508;52.512;13.450;2023-04-19T15:38:34;8.60;99.90
50556;DHT22;36508;52.512;13.450;2023-04-19T15:41:00;8.60;99.90
50556;DHT22;36508;52.512;13.450;2023-04-19T15:43:26;8.40;99.90